Courage — WDC6907 — position and weather

sailwx.info

Track history (hours):
 
Tides and Currents Weather Stations Pressure Air Temp Water Temp Dewpoint Dewpoint Depression Visibility Wind Speed Wind Dir Waves Ship Positions

Courage

Owner: TOTE Services, Inc., Jacksonville, FL. More information available from US FCC via Universal Licensing System and Coast Guard Vessel Documentation Center.

Last reported at 2015-Apr-17 01:18 UTC. Time now 2015-Apr-19 03:10 UTC.
Position N 49°57' W 003°18'.

Type: Ship. MMSI: 367063050.

Date/timePositionNaut miles runAvg speedWind from/ knotsBaromVisibWave heightAir tempDewpointWater temp
2015-Apr-17 01:18N 49°57' W 003°18'1317.5
2015-Apr-17 00:32N 49°59' W 002°57'1818.7
2015-Apr-16 23:34N 50°05' W 002°30'2618.6
2015-Apr-16 22:11N 50°16' W 001°54'1816.8
2015-Apr-16 21:08N 50°23' W 001°29'915.6
2015-Apr-16 20:34N 50°28' W 001°17'1414.0
2015-Apr-16 19:34N 50°36' W 000°59'1010.5
2015-Apr-16 18:33N 50°45' W 001°06'1010.0
2015-Apr-16 17:33N 50°51' W 001°20'4 3.6
2015-Apr-16 16:33N 50°53' W 001°24'0 0.0
2015-Apr-16 15:33N 50°53' W 001°24'0 0.0
2015-Apr-16 14:33N 50°53' W 001°24'0 0.0
2015-Apr-16 13:32N 50°53' W 001°24'0 0.0
2015-Apr-16 12:32N 50°53' W 001°24'0 0.0
2015-Apr-16 11:33N 50°53' W 001°24'0 0.0
2015-Apr-16 10:33N 50°53' W 001°24'0 0.0
2015-Apr-16 09:33N 50°53' W 001°24'0 0.0
2015-Apr-16 08:33N 50°53' W 001°24'0 0.0
2015-Apr-16 07:33N 50°53' W 001°24'0 0.0
2015-Apr-16 06:33N 50°53' W 001°24'0 0.1
2015-Apr-16 05:33N 50°53' W 001°24'6 6.4
2015-Apr-16 04:33N 50°47' W 001°19'1313.1
2015-Apr-16 03:34N 50°43' W 000°59'1110.9
2015-Apr-16 02:33N 50°37' W 000°44'1414.3
2015-Apr-16 01:33N 50°34' W 000°22'1615.3
2015-Apr-16 00:32N 50°32' E 000°02'1515.6
2015-Apr-15 23:33N 50°37' E 000°25'1515.2
2015-Apr-15 22:33N 50°44' E 000°46'1514.3
2015-Apr-15 21:32N 50°53' E 001°05'1212.4
2015-Apr-15 20:33N 51°00' E 001°20'1313.3
2015-Apr-15 19:34N 51°09' E 001°36'1514.7
2015-Apr-15 18:34N 51°20' E 001°50'1716.5
2015-Apr-15 17:33N 51°33' E 002°07'1716.7
2015-Apr-15 16:33N 51°46' E 002°25'1717.4
2015-Apr-15 15:33N 51°59' E 002°43'4816.1
2015-Apr-15 12:32N 52°38' E 003°31'1715.2
2015-Apr-15 11:27N 52°51' E 003°48'1314.7
2015-Apr-15 10:33N 52°60' E 004°04'1515.3
2015-Apr-15 09:33N 53°10' E 004°23'1614.9
2015-Apr-15 08:28N 53°25' E 004°33'1313.8
2015-Apr-15 07:33N 53°31' E 004°51'1414.3
2015-Apr-15 06:33N 53°37' E 005°14'1313.2
2015-Apr-15 05:33N 53°41' E 005°35'1312.7
2015-Apr-15 04:33N 53°45' E 005°55'1312.7
2015-Apr-15 03:33N 53°48' E 006°16'1312.9
2015-Apr-15 02:33N 53°52' E 006°37'1413.6
2015-Apr-15 01:30N 53°55' E 007°01'1414.4
2015-Apr-15 00:34N 53°58' E 007°23'1212.2
2015-Apr-14 23:34N 53°55' E 007°43'1414.1
2015-Apr-14 22:33N 53°50' E 008°06'1817.6
2015-Apr-14 21:33N 53°38' E 008°28'5 4.6
2015-Apr-14 20:31N 53°34' E 008°33'0 0.4
2015-Apr-14 19:31N 53°35' E 008°33'0 0.0
2015-Apr-14 18:31N 53°35' E 008°33'0 0.0
2015-Apr-14 17:31N 53°35' E 008°33'0 0.0
2015-Apr-14 16:31N 53°35' E 008°33'0 0.0
2015-Apr-14 15:31N 53°35' E 008°33'0 0.0
2015-Apr-14 14:31N 53°35' E 008°33'0 0.0
2015-Apr-14 13:31N 53°35' E 008°33'0 0.0
2015-Apr-14 12:31N 53°35' E 008°33'0 0.0
2015-Apr-14 11:31N 53°35' E 008°33'0 0.0
2015-Apr-14 10:31N 53°35' E 008°33'0 0.0
2015-Apr-14 09:31N 53°35' E 008°33'0 0.0
2015-Apr-14 08:31N 53°35' E 008°33'0 0.0
2015-Apr-14 07:31N 53°35' E 008°33'0 0.0
2015-Apr-14 06:31N 53°35' E 008°33'0 0.0
2015-Apr-14 05:31N 53°35' E 008°33'0 0.0
2015-Apr-14 04:28N 53°35' E 008°33'0 0.0
2015-Apr-14 03:31N 53°35' E 008°33'1 0.8
2015-Apr-14 02:33N 53°34' E 008°33'1010.3
2015-Apr-14 01:33N 53°41' E 008°21'1413.9
2015-Apr-14 00:33N 53°50' E 008°03'7 6.4
2015-Apr-13 23:28N 53°53' E 007°53'0 0.0
2015-Apr-13 21:31N 53°53' E 007°52'0 0.0
2015-Apr-13 20:28N 53°53' E 007°52'0 0.1
2015-Apr-13 19:31N 53°53' E 007°52'0 0.0
2015-Apr-13 18:33N 53°53' E 007°53'1 0.5
2015-Apr-13 17:33N 53°53' E 007°52'1312.8
2015-Apr-13 16:34N 53°54' E 007°30'1515.1
2015-Apr-13 15:33N 53°50' E 007°05'1715.6
2015-Apr-13 14:27N 53°46' E 006°37'1415.5
2015-Apr-13 13:33N 53°43' E 006°14'1515.4
2015-Apr-13 12:34N 53°38' E 005°49'1615.6
2015-Apr-13 11:34N 53°33' E 005°24'1615.7
2015-Apr-13 10:34N 53°28' E 004°59'1514.7
2015-Apr-13 09:34N 53°19' E 004°40'1715.1
2015-Apr-13 08:27N 53°04' E 004°27'1614.5
2015-Apr-13 07:22N 52°51' E 004°14'1414.3
2015-Apr-13 06:22N 52°40' E 003°58'1114.1
2015-Apr-13 05:33N 52°32' E 003°45'5911.8
2015-Apr-13 00:33N 51°42' E 002°54'1413.3
2015-Apr-12 23:32N 51°30' E 002°44'9 9.2
2015-Apr-12 22:33N 51°22' E 002°52'1312.7
2015-Apr-12 21:34N 51°22' E 003°12'2 1.8
2015-Apr-12 20:26N 51°20' E 003°13'1 1.0
2015-Apr-12 19:32N 51°19' E 003°14'0 0.0
2015-Apr-12 18:32N 51°19' E 003°14'0 0.0
2015-Apr-12 17:32N 51°19' E 003°14'0 0.0
2015-Apr-12 16:32N 51°19' E 003°14'0 0.0
2015-Apr-12 15:32N 51°19' E 003°14'0 0.0
2015-Apr-12 14:32N 51°19' E 003°14'1 0.6
2015-Apr-12 13:33N 51°18' E 003°14'0 0.0
2015-Apr-12 12:33N 51°18' E 003°14'0 0.0
2015-Apr-12 11:33N 51°18' E 003°14'0 0.0
2015-Apr-12 10:33N 51°18' E 003°14'0 0.0
2015-Apr-12 09:33N 51°18' E 003°14'0 0.0
2015-Apr-12 08:33N 51°18' E 003°14'0 0.0
2015-Apr-12 07:33N 51°18' E 003°14'0 0.0
2015-Apr-12 06:30N 51°18' E 003°14'0 0.0
2015-Apr-12 05:33N 51°18' E 003°14'0 0.0
2015-Apr-12 04:30N 51°18' E 003°14'0 0.0
2015-Apr-12 03:33N 51°18' E 003°14'0 0.0
2015-Apr-12 02:33N 51°18' E 003°14'0 0.0
2015-Apr-12 01:33N 51°18' E 003°14'0 0.0
2015-Apr-12 00:33N 51°18' E 003°14'2 1.7
2015-Apr-11 23:33N 51°20' E 003°13'1 0.6
2015-Apr-11 22:33N 51°21' E 003°13'6 5.9
2015-Apr-11 21:34N 51°24' E 003°20'1414.1
2015-Apr-11 20:33N 51°25' E 003°42'1212.0
2015-Apr-11 19:33N 51°26' E 004°02'1110.9
2015-Apr-11 18:34N 51°20' E 004°16'4 4.0
2015-Apr-11 17:33N 51°16' E 004°17'1 1.4
2015-Apr-11 16:34N 51°16' E 004°15'0 0.2
2015-Apr-11 15:31N 51°16' E 004°14'0 0.0
2015-Apr-11 14:31N 51°16' E 004°14'0 0.0
2015-Apr-11 13:31N 51°16' E 004°14'0 0.0
2015-Apr-11 12:28N 51°16' E 004°14'0 0.0
2015-Apr-11 11:28N 51°16' E 004°14'0 0.0
2015-Apr-11 10:31N 51°16' E 004°14'0 0.0
2015-Apr-11 09:31N 51°16' E 004°14'0 0.0
2015-Apr-11 08:31N 51°16' E 004°14'0 0.0
2015-Apr-11 06:13N 51°16' E 004°14'0 0.0
2015-Apr-11 05:31N 51°16' E 004°14'0 0.0
2015-Apr-11 04:31N 51°16' E 004°14'0 0.0
2015-Apr-11 03:31N 51°16' E 004°14'0 0.0
2015-Apr-11 02:31N 51°16' E 004°14'0 0.0
2015-Apr-11 01:31N 51°16' E 004°14'0 0.0
2015-Apr-11 00:31N 51°16' E 004°14'0 0.0
2015-Apr-10 23:31N 51°16' E 004°14'0 0.0
2015-Apr-10 22:28N 51°16' E 004°14'0 0.0
2015-Apr-10 21:31N 51°16' E 004°14'0 0.0
2015-Apr-10 20:31N 51°16' E 004°14'0 0.0
2015-Apr-10 19:33N 51°16' E 004°14'0 0.0
2015-Apr-10 18:33N 51°16' E 004°14'0 0.0
2015-Apr-10 17:33N 51°16' E 004°14'0 0.0
2015-Apr-10 16:33N 51°16' E 004°14'0 0.0
2015-Apr-10 15:30N 51°16' E 004°14'0 0.0
2015-Apr-10 14:33N 51°16' E 004°14'0 0.0
2015-Apr-10 13:33N 51°16' E 004°14'0 0.0
2015-Apr-10 12:30N 51°16' E 004°14'0 0.0
2015-Apr-10 11:33N 51°16' E 004°14'0 0.0
2015-Apr-10 10:33N 51°16' E 004°14'0 0.0
2015-Apr-10 09:33N 51°16' E 004°14'0 0.0
2015-Apr-10 08:33N 51°16' E 004°14'0 0.0
2015-Apr-10 07:30N 51°16' E 004°14'0 0.0
2015-Apr-10 06:33N 51°16' E 004°14'0 0.0
2015-Apr-10 05:33N 51°16' E 004°14'0 0.0
2015-Apr-10 04:33N 51°16' E 004°14'0 0.0
2015-Apr-10 03:33N 51°16' E 004°14'0 0.0
2015-Apr-10 02:30N 51°16' E 004°14'0 0.0
2015-Apr-10 01:30N 51°16' E 004°14'0 0.0
2015-Apr-10 00:33N 51°16' E 004°14'0 0.0
2015-Apr-09 23:33N 51°16' E 004°14'0 0.0
2015-Apr-09 22:30N 51°16' E 004°14'0 0.0
2015-Apr-09 21:33N 51°16' E 004°14'0 0.0
2015-Apr-09 20:33N 51°16' E 004°14'0 0.0
2015-Apr-09 19:33N 51°16' E 004°14'0 0.0
2015-Apr-09 18:33N 51°16' E 004°14'0 0.0
2015-Apr-09 17:27N 51°16' E 004°14'0 0.4
2015-Apr-09 16:29N 51°16' E 004°14'0 0.0
2015-Apr-09 15:32N 51°16' E 004°14'0 0.0
2015-Apr-09 14:29N 51°16' E 004°14'0 0.0
2015-Apr-09 13:32N 51°16' E 004°14'0 0.0
2015-Apr-09 12:32N 51°16' E 004°14'0 0.0
2015-Apr-09 11:32N 51°16' E 004°14'0 0.0
2015-Apr-09 10:32N 51°16' E 004°14'0 0.0
2015-Apr-09 09:32N 51°16' E 004°14'0 0.0
2015-Apr-09 08:29N 51°16' E 004°14'0 0.0
2015-Apr-09 07:32N 51°16' E 004°14'0 0.0
2015-Apr-09 06:32N 51°16' E 004°14'0 0.0
2015-Apr-09 05:32N 51°16' E 004°14'0 0.0
2015-Apr-09 04:32N 51°16' E 004°14'0 0.0
2015-Apr-09 03:32N 51°16' E 004°14'0 0.0
2015-Apr-09 02:32N 51°16' E 004°14'0 0.0
2015-Apr-09 01:33N 51°16' E 004°14'0 0.0
2015-Apr-09 00:34N 51°16' E 004°14'1 1.4
2015-Apr-08 23:34N 51°16' E 004°17'2 2.0
2015-Apr-08 22:34N 51°17' E 004°19'9 8.6
2015-Apr-08 21:33N 51°23' E 004°09'9 8.6
2015-Apr-08 20:33N 51°22' E 003°55'1110.8
2015-Apr-08 19:33N 51°26' E 003°39'9 9.3
2015-Apr-08 18:33N 51°25' E 003°25'1414.0
2015-Apr-08 17:33N 51°24' E 003°02'1313.1
2015-Apr-08 16:33N 51°22' E 002°42'5 5.1
2015-Apr-08 15:31N 51°25' E 002°34'0 0.0
2015-Apr-08 14:31N 51°25' E 002°34'0 0.1
2015-Apr-08 13:28N 51°25' E 002°34'0 0.1
2015-Apr-08 12:31N 51°25' E 002°34'0 0.0
2015-Apr-08 11:31N 51°25' E 002°34'0 0.0
2015-Apr-08 10:31N 51°25' E 002°34'0 0.2
2015-Apr-08 09:27N 51°25' E 002°34'8 8.5
2015-Apr-08 08:34N 51°21' E 002°24'1212.1
2015-Apr-08 07:34N 51°14' E 002°07'1312.7
2015-Apr-08 06:33N 51°09' E 001°49'1413.6
2015-Apr-08 05:34N 50°60' E 001°33'1514.8
2015-Apr-08 04:33N 50°47' E 001°23'1414.4
2015-Apr-08 03:33N 50°35' E 001°09'1514.9
2015-Apr-08 02:33N 50°28' E 000°48'1515.0
2015-Apr-08 01:32N 50°23' E 000°25'1614.5
2015-Apr-08 00:27N 50°19' E 000°02'1615.0
2015-Apr-07 23:24N 50°14' W 000°22'1315.9
2015-Apr-07 22:33N 50°11' W 000°42'1717.1
2015-Apr-07 21:33N 50°08' W 001°08'2019.9
2015-Apr-07 20:34N 50°04' W 001°39'1919.3
2015-Apr-07 19:33N 49°58' W 002°08'1817.8
2015-Apr-07 18:31N 49°53' W 002°35'  
Track history (hours):
 
Tides and Currents Weather Stations Pressure Air Temp Water Temp Dewpoint Dewpoint Depression Visibility Wind Speed Wind Dir Waves Ship Positions

Courage

Owner: TOTE Services, Inc., Jacksonville, FL. More information available from US FCC via Universal Licensing System and Coast Guard Vessel Documentation Center.

Last reported at 2015-Apr-17 01:18 UTC. Time now 2015-Apr-19 03:10 UTC.
Position N 49°57' W 003°18'.

Type: Ship. MMSI: 367063050.

Date/timePositionNaut miles runAvg speedWind from/ knotsBaromVisibWave heightAir tempDewpointWater temp
2015-Apr-17 01:18N 49°57' W 003°18'1317.5
2015-Apr-17 00:32N 49°59' W 002°57'1818.7
2015-Apr-16 23:34N 50°05' W 002°30'2618.6
2015-Apr-16 22:11N 50°16' W 001°54'1816.8
2015-Apr-16 21:08N 50°23' W 001°29'915.6
2015-Apr-16 20:34N 50°28' W 001°17'1414.0
2015-Apr-16 19:34N 50°36' W 000°59'1010.5
2015-Apr-16 18:33N 50°45' W 001°06'1010.0
2015-Apr-16 17:33N 50°51' W 001°20'4 3.6
2015-Apr-16 16:33N 50°53' W 001°24'0 0.0
2015-Apr-16 15:33N 50°53' W 001°24'0 0.0
2015-Apr-16 14:33N 50°53' W 001°24'0 0.0
2015-Apr-16 13:32N 50°53' W 001°24'0 0.0
2015-Apr-16 12:32N 50°53' W 001°24'0 0.0
2015-Apr-16 11:33N 50°53' W 001°24'0 0.0
2015-Apr-16 10:33N 50°53' W 001°24'0 0.0
2015-Apr-16 09:33N 50°53' W 001°24'0 0.0
2015-Apr-16 08:33N 50°53' W 001°24'0 0.0
2015-Apr-16 07:33N 50°53' W 001°24'0 0.0
2015-Apr-16 06:33N 50°53' W 001°24'0 0.1
2015-Apr-16 05:33N 50°53' W 001°24'6 6.4
2015-Apr-16 04:33N 50°47' W 001°19'1313.1
2015-Apr-16 03:34N 50°43' W 000°59'1110.9
2015-Apr-16 02:33N 50°37' W 000°44'1414.3
2015-Apr-16 01:33N 50°34' W 000°22'1615.3
2015-Apr-16 00:32N 50°32' E 000°02'1515.6
2015-Apr-15 23:33N 50°37' E 000°25'1515.2
2015-Apr-15 22:33N 50°44' E 000°46'1514.3
2015-Apr-15 21:32N 50°53' E 001°05'1212.4
2015-Apr-15 20:33N 51°00' E 001°20'1313.3
2015-Apr-15 19:34N 51°09' E 001°36'1514.7
2015-Apr-15 18:34N 51°20' E 001°50'1716.5
2015-Apr-15 17:33N 51°33' E 002°07'1716.7
2015-Apr-15 16:33N 51°46' E 002°25'1717.4
2015-Apr-15 15:33N 51°59' E 002°43'4816.1
2015-Apr-15 12:32N 52°38' E 003°31'1715.2
2015-Apr-15 11:27N 52°51' E 003°48'1314.7
2015-Apr-15 10:33N 52°60' E 004°04'1515.3
2015-Apr-15 09:33N 53°10' E 004°23'1614.9
2015-Apr-15 08:28N 53°25' E 004°33'1313.8
2015-Apr-15 07:33N 53°31' E 004°51'1414.3
2015-Apr-15 06:33N 53°37' E 005°14'1313.2
2015-Apr-15 05:33N 53°41' E 005°35'1312.7
2015-Apr-15 04:33N 53°45' E 005°55'1312.7
2015-Apr-15 03:33N 53°48' E 006°16'1312.9
2015-Apr-15 02:33N 53°52' E 006°37'1413.6
2015-Apr-15 01:30N 53°55' E 007°01'1414.4
2015-Apr-15 00:34N 53°58' E 007°23'1212.2
2015-Apr-14 23:34N 53°55' E 007°43'1414.1
2015-Apr-14 22:33N 53°50' E 008°06'1817.6
2015-Apr-14 21:33N 53°38' E 008°28'5 4.6
2015-Apr-14 20:31N 53°34' E 008°33'0 0.4
2015-Apr-14 19:31N 53°35' E 008°33'0 0.0
2015-Apr-14 18:31N 53°35' E 008°33'0 0.0
2015-Apr-14 17:31N 53°35' E 008°33'0 0.0
2015-Apr-14 16:31N 53°35' E 008°33'0 0.0
2015-Apr-14 15:31N 53°35' E 008°33'0 0.0
2015-Apr-14 14:31N 53°35' E 008°33'0 0.0
2015-Apr-14 13:31N 53°35' E 008°33'0 0.0
2015-Apr-14 12:31N 53°35' E 008°33'0 0.0
2015-Apr-14 11:31N 53°35' E 008°33'0 0.0
2015-Apr-14 10:31N 53°35' E 008°33'0 0.0
2015-Apr-14 09:31N 53°35' E 008°33'0 0.0
2015-Apr-14 08:31N 53°35' E 008°33'0 0.0
2015-Apr-14 07:31N 53°35' E 008°33'0 0.0
2015-Apr-14 06:31N 53°35' E 008°33'0 0.0
2015-Apr-14 05:31N 53°35' E 008°33'0 0.0
2015-Apr-14 04:28N 53°35' E 008°33'0 0.0
2015-Apr-14 03:31N 53°35' E 008°33'1 0.8
2015-Apr-14 02:33N 53°34' E 008°33'1010.3
2015-Apr-14 01:33N 53°41' E 008°21'1413.9
2015-Apr-14 00:33N 53°50' E 008°03'7 6.4
2015-Apr-13 23:28N 53°53' E 007°53'0 0.0
2015-Apr-13 21:31N 53°53' E 007°52'0 0.0
2015-Apr-13 20:28N 53°53' E 007°52'0 0.1
2015-Apr-13 19:31N 53°53' E 007°52'0 0.0
2015-Apr-13 18:33N 53°53' E 007°53'1 0.5
2015-Apr-13 17:33N 53°53' E 007°52'1312.8
2015-Apr-13 16:34N 53°54' E 007°30'1515.1
2015-Apr-13 15:33N 53°50' E 007°05'1715.6
2015-Apr-13 14:27N 53°46' E 006°37'1415.5
2015-Apr-13 13:33N 53°43' E 006°14'1515.4
2015-Apr-13 12:34N 53°38' E 005°49'1615.6
2015-Apr-13 11:34N 53°33' E 005°24'1615.7
2015-Apr-13 10:34N 53°28' E 004°59'1514.7
2015-Apr-13 09:34N 53°19' E 004°40'1715.1
2015-Apr-13 08:27N 53°04' E 004°27'1614.5
2015-Apr-13 07:22N 52°51' E 004°14'1414.3
2015-Apr-13 06:22N 52°40' E 003°58'1114.1
2015-Apr-13 05:33N 52°32' E 003°45'5911.8
2015-Apr-13 00:33N 51°42' E 002°54'1413.3
2015-Apr-12 23:32N 51°30' E 002°44'9 9.2
2015-Apr-12 22:33N 51°22' E 002°52'1312.7
2015-Apr-12 21:34N 51°22' E 003°12'2 1.8
2015-Apr-12 20:26N 51°20' E 003°13'1 1.0
2015-Apr-12 19:32N 51°19' E 003°14'0 0.0
2015-Apr-12 18:32N 51°19' E 003°14'0 0.0
2015-Apr-12 17:32N 51°19' E 003°14'0 0.0
2015-Apr-12 16:32N 51°19' E 003°14'0 0.0
2015-Apr-12 15:32N 51°19' E 003°14'0 0.0
2015-Apr-12 14:32N 51°19' E 003°14'1 0.6
2015-Apr-12 13:33N 51°18' E 003°14'0 0.0
2015-Apr-12 12:33N 51°18' E 003°14'0 0.0
2015-Apr-12 11:33N 51°18' E 003°14'0 0.0
2015-Apr-12 10:33N 51°18' E 003°14'0 0.0
2015-Apr-12 09:33N 51°18' E 003°14'0 0.0
2015-Apr-12 08:33N 51°18' E 003°14'0 0.0
2015-Apr-12 07:33N 51°18' E 003°14'0 0.0
2015-Apr-12 06:30N 51°18' E 003°14'0 0.0
2015-Apr-12 05:33N 51°18' E 003°14'0 0.0
2015-Apr-12 04:30N 51°18' E 003°14'0 0.0
2015-Apr-12 03:33N 51°18' E 003°14'0 0.0
2015-Apr-12 02:33N 51°18' E 003°14'0 0.0
2015-Apr-12 01:33N 51°18' E 003°14'0 0.0
2015-Apr-12 00:33N 51°18' E 003°14'2 1.7
2015-Apr-11 23:33N 51°20' E 003°13'1 0.6
2015-Apr-11 22:33N 51°21' E 003°13'6 5.9
2015-Apr-11 21:34N 51°24' E 003°20'1414.1
2015-Apr-11 20:33N 51°25' E 003°42'1212.0
2015-Apr-11 19:33N 51°26' E 004°02'1110.9
2015-Apr-11 18:34N 51°20' E 004°16'4 4.0
2015-Apr-11 17:33N 51°16' E 004°17'1 1.4
2015-Apr-11 16:34N 51°16' E 004°15'0 0.2
2015-Apr-11 15:31N 51°16' E 004°14'0 0.0
2015-Apr-11 14:31N 51°16' E 004°14'0 0.0
2015-Apr-11 13:31N 51°16' E 004°14'0 0.0
2015-Apr-11 12:28N 51°16' E 004°14'0 0.0
2015-Apr-11 11:28N 51°16' E 004°14'0 0.0
2015-Apr-11 10:31N 51°16' E 004°14'0 0.0
2015-Apr-11 09:31N 51°16' E 004°14'0 0.0
2015-Apr-11 08:31N 51°16' E 004°14'0 0.0
2015-Apr-11 06:13N 51°16' E 004°14'0 0.0
2015-Apr-11 05:31N 51°16' E 004°14'0 0.0
2015-Apr-11 04:31N 51°16' E 004°14'0 0.0
2015-Apr-11 03:31N 51°16' E 004°14'0 0.0
2015-Apr-11 02:31N 51°16' E 004°14'0 0.0
2015-Apr-11 01:31N 51°16' E 004°14'0 0.0
2015-Apr-11 00:31N 51°16' E 004°14'0 0.0
2015-Apr-10 23:31N 51°16' E 004°14'0 0.0
2015-Apr-10 22:28N 51°16' E 004°14'0 0.0
2015-Apr-10 21:31N 51°16' E 004°14'0 0.0
2015-Apr-10 20:31N 51°16' E 004°14'0 0.0
2015-Apr-10 19:33N 51°16' E 004°14'0 0.0
2015-Apr-10 18:33N 51°16' E 004°14'0 0.0
2015-Apr-10 17:33N 51°16' E 004°14'0 0.0
2015-Apr-10 16:33N 51°16' E 004°14'0 0.0
2015-Apr-10 15:30N 51°16' E 004°14'0 0.0
2015-Apr-10 14:33N 51°16' E 004°14'0 0.0
2015-Apr-10 13:33N 51°16' E 004°14'0 0.0
2015-Apr-10 12:30N 51°16' E 004°14'0 0.0
2015-Apr-10 11:33N 51°16' E 004°14'0 0.0
2015-Apr-10 10:33N 51°16' E 004°14'0 0.0
2015-Apr-10 09:33N 51°16' E 004°14'0 0.0
2015-Apr-10 08:33N 51°16' E 004°14'0 0.0
2015-Apr-10 07:30N 51°16' E 004°14'0 0.0
2015-Apr-10 06:33N 51°16' E 004°14'0 0.0
2015-Apr-10 05:33N 51°16' E 004°14'0 0.0
2015-Apr-10 04:33N 51°16' E 004°14'0 0.0
2015-Apr-10 03:33N 51°16' E 004°14'0 0.0
2015-Apr-10 02:30N 51°16' E 004°14'0 0.0
2015-Apr-10 01:30N 51°16' E 004°14'0 0.0
2015-Apr-10 00:33N 51°16' E 004°14'0 0.0
2015-Apr-09 23:33N 51°16' E 004°14'0 0.0
2015-Apr-09 22:30N 51°16' E 004°14'0 0.0
2015-Apr-09 21:33N 51°16' E 004°14'0 0.0
2015-Apr-09 20:33N 51°16' E 004°14'0 0.0
2015-Apr-09 19:33N 51°16' E 004°14'0 0.0
2015-Apr-09 18:33N 51°16' E 004°14'0 0.0
2015-Apr-09 17:27N 51°16' E 004°14'0 0.4
2015-Apr-09 16:29N 51°16' E 004°14'0 0.0
2015-Apr-09 15:32N 51°16' E 004°14'0 0.0
2015-Apr-09 14:29N 51°16' E 004°14'0 0.0
2015-Apr-09 13:32N 51°16' E 004°14'0 0.0
2015-Apr-09 12:32N 51°16' E 004°14'0 0.0
2015-Apr-09 11:32N 51°16' E 004°14'0 0.0
2015-Apr-09 10:32N 51°16' E 004°14'0 0.0
2015-Apr-09 09:32N 51°16' E 004°14'0 0.0
2015-Apr-09 08:29N 51°16' E 004°14'0 0.0
2015-Apr-09 07:32N 51°16' E 004°14'0 0.0
2015-Apr-09 06:32N 51°16' E 004°14'0 0.0
2015-Apr-09 05:32N 51°16' E 004°14'0 0.0
2015-Apr-09 04:32N 51°16' E 004°14'0 0.0
2015-Apr-09 03:32N 51°16' E 004°14'0 0.0
2015-Apr-09 02:32N 51°16' E 004°14'0 0.0
2015-Apr-09 01:33N 51°16' E 004°14'0 0.0
2015-Apr-09 00:34N 51°16' E 004°14'1 1.4
2015-Apr-08 23:34N 51°16' E 004°17'2 2.0
2015-Apr-08 22:34N 51°17' E 004°19'9 8.6
2015-Apr-08 21:33N 51°23' E 004°09'9 8.6
2015-Apr-08 20:33N 51°22' E 003°55'1110.8
2015-Apr-08 19:33N 51°26' E 003°39'9 9.3
2015-Apr-08 18:33N 51°25' E 003°25'1414.0
2015-Apr-08 17:33N 51°24' E 003°02'1313.1
2015-Apr-08 16:33N 51°22' E 002°42'5 5.1
2015-Apr-08 15:31N 51°25' E 002°34'0 0.0
2015-Apr-08 14:31N 51°25' E 002°34'0 0.1
2015-Apr-08 13:28N 51°25' E 002°34'0 0.1
2015-Apr-08 12:31N 51°25' E 002°34'0 0.0
2015-Apr-08 11:31N 51°25' E 002°34'0 0.0
2015-Apr-08 10:31N 51°25' E 002°34'0 0.2
2015-Apr-08 09:27N 51°25' E 002°34'8 8.5
2015-Apr-08 08:34N 51°21' E 002°24'1212.1
2015-Apr-08 07:34N 51°14' E 002°07'1312.7
2015-Apr-08 06:33N 51°09' E 001°49'1413.6
2015-Apr-08 05:34N 50°60' E 001°33'1514.8
2015-Apr-08 04:33N 50°47' E 001°23'1414.4
2015-Apr-08 03:33N 50°35' E 001°09'1514.9
2015-Apr-08 02:33N 50°28' E 000°48'1515.0
2015-Apr-08 01:32N 50°23' E 000°25'1614.5
2015-Apr-08 00:27N 50°19' E 000°02'1615.0
2015-Apr-07 23:24N 50°14' W 000°22'1315.9
2015-Apr-07 22:33N 50°11' W 000°42'1717.1
2015-Apr-07 21:33N 50°08' W 001°08'2019.9
2015-Apr-07 20:34N 50°04' W 001°39'1919.3
2015-Apr-07 19:33N 49°58' W 002°08'1817.8
2015-Apr-07 18:31N 49°53' W 002°35'  

Dump ship's entire track history